Time,TemperatureF,DewpointF,PressureIn,WindDirection,WindDirectionDegrees,WindSpeedMPH,WindSpeedGustMPH,Humidity,HourlyPrecipIn,Conditions,Clouds,dailyrainin,SoftwareType,DateUTC
2013-03-29 00:00:00,41.5,29.5,30.04,North,0,3.8,7.2,62,0.00,,,0.00,WUHU216HW,2013-03-29 04:00:00,
2013-03-29 00:05:00,41.3,29.3,30.04,NW,315,4.3,7.2,62,0.00,,,0.00,WUHU216HW,2013-03-29 04:05:00,
2013-03-29 00:10:00,41.3,29.7,30.04,NW,315,5.4,5.4,63,0.00,,,0.00,WUHU216HW,2013-03-29 04:10:00,
2013-03-29 00:15:00,41.3,29.3,30.04,North,0,4.0,5.4,62,0.00,,,0.00,WUHU216HW,2013-03-29 04:15:00,
2013-03-29 00:20:00,41.3,29.3,30.04,NW,315,4.7,4.7,62,0.00,,,0.00,WUHU216HW,2013-03-29 04:20:00,
2013-03-29 00:25:00,41.1,29.1,30.04,NW,315,3.6,4.9,62,0.00,,,0.00,WUHU216HW,2013-03-29 04:25:00,
2013-03-29 00:26:00,41.1,29.1,30.05,NNW,338,2.0,4.9,62,0.00,,,0.00,WUHU216HW,2013-03-29 04:26:00,
2013-03-29 00:30:00,40.9,29.0,30.05,North,0,3.6,4.9,62,0.00,,,0.00,WUHU216HW,2013-03-29 04:30:00,
2013-03-29 00:31:00,40.9,29.3,30.05,North,0,3.4,4.9,63,0.00,,,0.00,WUHU216HW,2013-03-29 04:31:00,
2013-03-29 00:35:00,40.8,29.3,30.05,NW,315,4.0,4.9,63,0.00,,,0.00,WUHU216HW,2013-03-29 04:35:00,
2013-03-29 00:36:00,40.8,29.3,30.05,NW,315,4.0,4.9,63,0.00,,,0.00,WUHU216HW,2013-03-29 04:36:00,
2013-03-29 00:40:00,40.6,29.1,30.05,North,0,3.1,4.3,63,0.00,,,0.00,WUHU216HW,2013-03-29 04:40:00,
2013-03-29 00:41:00,40.6,29.1,30.05,North,0,3.1,4.3,63,0.00,,,0.00,WUHU216HW,2013-03-29 04:41:00,
2013-03-29 00:45:00,40.4,28.9,30.04,NNW,338,2.5,12.1,63,0.00,,,0.00,WUHU216HW,2013-03-29 04:45:00,
2013-03-29 00:46:00,40.4,28.9,30.04,NNW,338,2.5,12.1,63,0.00,,,0.00,WUHU216HW,2013-03-29 04:46:00,
2013-03-29 00:50:00,40.6,29.1,30.04,North,0,3.4,12.1,63,0.00,,,0.00,WUHU216HW,2013-03-29 04:50:00,
2013-03-29 00:51:00,40.6,29.1,30.04,North,0,3.4,12.1,63,0.00,,,0.00,WUHU216HW,2013-03-29 04:51:00,
2013-03-29 00:55:00,40.6,29.1,30.04,North,0,2.9,5.4,63,0.00,,,0.00,WUHU216HW,2013-03-29 04:55:00,
2013-03-29 00:56:00,40.6,29.1,30.04,North,0,2.9,5.4,63,0.00,,,0.00,WUHU216HW,2013-03-29 04:56:00,
2013-03-29 01:01:00,40.4,28.9,30.05,NNW,338,6.0,6.0,63,0.00,,,0.00,WUHU216HW,2013-03-29 05:01:00,
2013-03-29 01:06:00,40.6,29.1,30.04,North,0,4.7,6.0,63,0.00,,,0.00,WUHU216HW,2013-03-29 05:06:00,
2013-03-29 01:07:00,40.6,29.1,30.04,NNW,338,2.7,6.0,63,0.00,,,0.00,WUHU216HW,2013-03-29 05:07:00,
2013-03-29 01:11:00,40.6,29.1,30.05,NNW,338,4.0,4.7,63,0.00,,,0.00,WUHU216HW,2013-03-29 05:11:00,
2013-03-29 01:12:00,40.4,28.9,30.05,NW,315,4.0,4.7,63,0.00,,,0.00,WUHU216HW,2013-03-29 05:12:00,
2013-03-29 01:16:00,40.4,28.9,30.05,NNW,338,3.6,6.0,63,0.00,,,0.00,WUHU216HW,2013-03-29 05:16:00,
2013-03-29 01:17:00,40.6,29.1,30.05,NNW,338,4.0,6.0,63,0.00,,,0.00,WUHU216HW,2013-03-29 05:17:00,
2013-03-29 01:18:00,40.4,28.9,30.05,North,0,2.5,6.0,63,0.00,,,0.00,WUHU216HW,2013-03-29 05:18:00,
2013-03-29 01:21:00,40.4,28.9,30.04,WNW,293,4.0,6.0,63,0.00,,,0.00,WUHU216HW,2013-03-29 05:21:00,
2013-03-29 01:22:00,40.4,28.9,30.04,NNW,338,6.5,6.5,63,0.00,,,0.00,WUHU216HW,2013-03-29 05:22:00,
2013-03-29 01:23:00,40.4,28.9,30.05,NNW,338,3.4,6.5,63,0.00,,,0.00,WUHU216HW,2013-03-29 05:23:00,
2013-03-29 01:26:00,40.4,28.9,30.05,NNW,338,2.5,6.5,63,0.00,,,0.00,WUHU216HW,2013-03-29 05:26:00,
2013-03-29 01:27:00,40.4,28.9,30.05,NNW,338,3.4,6.5,63,0.00,,,0.00,WUHU216HW,2013-03-29 05:27:00,
2013-03-29 01:28:00,40.2,28.7,30.05,NW,315,2.5,6.5,63,0.00,,,0.00,WUHU216HW,2013-03-29 05:28:00,
2013-03-29 01:32:00,40.4,28.9,30.05,NNW,338,3.4,4.5,63,0.00,,,0.00,WUHU216HW,2013-03-29 05:32:00,
2013-03-29 01:33:00,40.4,28.9,30.05,NNW,338,3.4,4.5,63,0.00,,,0.00,WUHU216HW,2013-03-29 05:33:00,
2013-03-29 01:37:00,40.4,28.9,30.05,NW,315,4.7,4.7,63,0.00,,,0.00,WUHU216HW,2013-03-29 05:37:00,
2013-03-29 01:38:00,40.4,28.9,30.05,WNW,293,6.0,6.0,63,0.00,,,0.00,WUHU216HW,2013-03-29 05:38:00,
2013-03-29 01:39:00,40.4,28.9,30.05,WNW,293,6.0,6.0,63,0.00,,,0.00,WUHU216HW,2013-03-29 05:39:00,
2013-03-29 01:42:00,40.8,29.3,30.05,NW,315,3.4,6.0,63,0.00,,,0.00,WUHU216HW,2013-03-29 05:42:00,
2013-03-29 01:43:00,40.8,29.3,30.05,NW,315,4.3,6.0,63,0.00,,,0.00,WUHU216HW,2013-03-29 05:43:00,
2013-03-29 01:44:00,40.8,29.3,30.05,NNW,338,5.1,6.0,63,0.00,,,0.00,WUHU216HW,2013-03-29 05:44:00,
2013-03-29 01:47:00,40.8,29.3,30.05,NNW,338,2.0,6.9,63,0.00,,,0.00,WUHU216HW,2013-03-29 05:47:00,
2013-03-29 01:48:00,40.8,29.3,30.05,NNW,338,5.8,6.9,63,0.00,,,0.00,WUHU216HW,2013-03-29 05:48:00,
2013-03-29 01:49:00,40.9,29.3,30.05,North,0,4.7,6.9,63,0.00,,,0.00,WUHU216HW,2013-03-29 05:49:00,
2013-03-29 01:52:00,41.1,29.5,30.05,NNW,338,3.1,6.9,63,0.00,,,0.00,WUHU216HW,2013-03-29 05:52:00,
2013-03-29 01:53:00,41.1,29.1,30.05,North,0,4.0,6.9,62,0.00,,,0.00,WUHU216HW,2013-03-29 05:53:00,
2013-03-29 01:54:00,41.1,29.1,30.05,NW,315,6.0,6.9,62,0.00,,,0.00,WUHU216HW,2013-03-29 05:54:00,
2013-03-29 01:57:00,41.3,29.3,30.05,North,0,5.4,11.6,62,0.00,,,0.00,WUHU216HW,2013-03-29 05:57:00,
2013-03-29 01:58:00,41.3,29.3,30.05,WNW,293,8.7,11.6,62,0.00,,,0.00,WUHU216HW,2013-03-29 05:58:00,
2013-03-29 01:59:00,41.3,29.3,30.05,West,270,6.5,11.6,62,0.00,,,0.00,WUHU216HW,2013-03-29 05:59:00,
2013-03-29 02:03:00,41.3,29.3,30.05,North,0,4.0,11.6,62,0.00,,,0.00,WUHU216HW,2013-03-29 06:03:00,
2013-03-29 02:04:00,41.5,29.5,30.05,NNW,338,4.7,11.6,62,0.00,,,0.00,WUHU216HW,2013-03-29 06:04:00,
2013-03-29 02:05:00,41.5,29.5,30.05,NNW,338,6.7,8.7,62,0.00,,,0.00,WUHU216HW,2013-03-29 06:05:00,
2013-03-29 02:08:00,41.5,29.5,30.05,NNW,338,3.1,8.7,62,0.00,,,0.00,WUHU216HW,2013-03-29 06:08:00,
2013-03-29 02:09:00,41.5,29.5,30.05,NNW,338,5.4,7.4,62,0.00,,,0.00,WUHU216HW,2013-03-29 06:09:00,
2013-03-29 02:10:00,41.5,29.5,30.05,NNW,338,5.6,7.4,62,0.00,,,0.00,WUHU216HW,2013-03-29 06:10:00,
2013-03-29 02:13:00,41.5,29.5,30.05,North,0,3.4,7.4,62,0.00,,,0.00,WUHU216HW,2013-03-29 06:13:00,
2013-03-29 02:14:00,41.5,29.5,30.05,NW,315,4.5,7.4,62,0.00,,,0.00,WUHU216HW,2013-03-29 06:14:00,
2013-03-29 02:15:00,41.5,29.5,30.05,NNW,338,5.1,7.4,62,0.00,,,0.00,WUHU216HW,2013-03-29 06:15:00,
2013-03-29 02:18:00,41.5,29.5,30.05,NW,315,4.5,5.6,62,0.00,,,0.00,WUHU216HW,2013-03-29 06:18:00,
2013-03-29 02:19:00,41.5,29.5,30.05,North,0,5.4,5.6,62,0.00,,,0.00,WUHU216HW,2013-03-29 06:19:00,
2013-03-29 02:20:00,41.5,29.5,30.05,NNW,338,3.4,5.4,62,0.00,,,0.00,WUHU216HW,2013-03-29 06:20:00,
2013-03-29 02:23:00,41.5,29.1,30.05,NW,315,6.3,6.3,61,0.00,,,0.00,WUHU216HW,2013-03-29 06:23:00,
2013-03-29 02:24:00,41.5,29.1,30.05,NW,315,6.3,6.3,61,0.00,,,0.00,WUHU216HW,2013-03-29 06:24:00,
2013-03-29 02:25:00,41.5,29.1,30.05,NW,315,6.0,6.5,61,0.00,,,0.00,WUHU216HW,2013-03-29 06:25:00,
2013-03-29 02:29:00,41.5,29.5,30.05,NNW,338,6.0,7.4,62,0.00,,,0.00,WUHU216HW,2013-03-29 06:29:00,
2013-03-29 02:30:00,41.5,29.1,30.05,NNW,338,3.4,7.4,61,0.00,,,0.00,WUHU216HW,2013-03-29 06:30:00,
2013-03-29 02:31:00,41.5,29.1,30.05,NNW,338,5.4,7.4,61,0.00,,,0.00,WUHU216HW,2013-03-29 06:31:00,
2013-03-29 02:34:00,41.5,29.1,30.05,North,0,2.7,7.4,61,0.00,,,0.00,WUHU216HW,2013-03-29 06:34:00,
2013-03-29 02:35:00,41.5,29.1,30.05,North,0,4.0,7.4,61,0.00,,,0.00,WUHU216HW,2013-03-29 06:35:00,
2013-03-29 02:36:00,41.5,29.1,30.05,North,0,4.0,7.4,61,0.00,,,0.00,WUHU216HW,2013-03-29 06:36:00,
2013-03-29 02:39:00,41.5,29.1,30.05,WNW,293,4.7,6.0,61,0.00,,,0.00,WUHU216HW,2013-03-29 06:39:00,
2013-03-29 02:40:00,41.5,29.1,30.05,North,0,4.0,6.0,61,0.00,,,0.00,WUHU216HW,2013-03-29 06:40:00,
2013-03-29 02:41:00,41.5,29.1,30.05,North,0,4.5,6.0,61,0.00,,,0.00,WUHU216HW,2013-03-29 06:41:00,
2013-03-29 02:44:00,41.5,29.1,30.05,NNW,338,3.4,6.0,61,0.00,,,0.00,WUHU216HW,2013-03-29 06:44:00,
2013-03-29 02:45:00,41.5,29.1,30.05,North,0,3.1,6.0,61,0.00,,,0.00,WUHU216HW,2013-03-29 06:45:00,
2013-03-29 02:46:00,41.5,29.1,30.05,WNW,293,4.7,6.0,61,0.00,,,0.00,WUHU216HW,2013-03-29 06:46:00,
2013-03-29 02:49:00,41.5,29.1,30.05,North,0,4.7,6.9,61,0.00,,,0.00,WUHU216HW,2013-03-29 06:49:00,
2013-03-29 02:50:00,41.5,29.1,30.05,NW,315,3.6,6.9,61,0.00,,,0.00,WUHU216HW,2013-03-29 06:50:00,
2013-03-29 02:52:00,41.5,29.1,30.05,North,0,6.3,6.9,61,0.00,,,0.00,WUHU216HW,2013-03-29 06:52:00,
2013-03-29 02:54:00,41.5,28.7,30.05,NW,315,4.0,6.9,60,0.00,,,0.00,WUHU216HW,2013-03-29 06:54:00,
2013-03-29 02:55:00,41.5,28.7,30.05,North,0,2.0,6.9,60,0.00,,,0.00,WUHU216HW,2013-03-29 06:55:00,
2013-03-29 02:56:00,41.5,28.7,30.05,North,0,2.0,6.9,60,0.00,,,0.00,WUHU216HW,2013-03-29 06:56:00,
2013-03-29 02:57:00,41.5,28.7,30.05,NNW,338,4.5,6.9,60,0.00,,,0.00,WUHU216HW,2013-03-29 06:57:00,
2013-03-29 02:59:00,41.3,28.9,30.05,NW,315,3.6,6.3,61,0.00,,,0.00,WUHU216HW,2013-03-29 06:59:00,
2013-03-29 03:00:00,41.3,28.9,30.04,NW,315,6.9,6.9,61,0.00,,,0.00,WUHU216HW,2013-03-29 07:00:00,
2013-03-29 03:01:00,41.1,28.7,30.05,North,0,7.4,7.4,61,0.00,,,0.00,WUHU216HW,2013-03-29 07:01:00,
2013-03-29 03:02:00,41.1,28.7,30.05,NNW,338,4.7,7.4,61,0.00,,,0.00,WUHU216HW,2013-03-29 07:02:00,
2013-03-29 03:05:00,41.1,28.3,30.05,NNW,338,5.1,7.4,60,0.00,,,0.00,WUHU216HW,2013-03-29 07:05:00,
2013-03-29 03:06:00,41.1,28.7,30.04,North,0,4.0,7.4,61,0.00,,,0.00,WUHU216HW,2013-03-29 07:06:00,
2013-03-29 03:07:00,41.1,28.3,30.05,North,0,3.6,7.4,60,0.00,,,0.00,WUHU216HW,2013-03-29 07:07:00,
2013-03-29 03:10:00,41.1,28.7,30.04,NNW,338,4.0,7.4,61,0.00,,,0.00,WUHU216HW,2013-03-29 07:10:00,
2013-03-29 03:11:00,41.1,28.7,30.04,NW,315,4.5,5.8,61,0.00,,,0.00,WUHU216HW,2013-03-29 07:11:00,
2013-03-29 03:12:00,41.1,28.7,30.04,NNW,338,6.7,6.7,61,0.00,,,0.00,WUHU216HW,2013-03-29 07:12:00,
2013-03-29 03:15:00,40.9,28.6,30.04,North,0,4.7,6.7,61,0.00,,,0.00,WUHU216HW,2013-03-29 07:15:00,
2013-03-29 03:16:00,40.9,28.6,30.04,NNW,338,2.5,6.7,61,0.00,,,0.00,WUHU216HW,2013-03-29 07:16:00,
2013-03-29 03:17:00,40.8,28.5,30.05,North,0,5.4,6.7,61,0.00,,,0.00,WUHU216HW,2013-03-29 07:17:00,
2013-03-29 03:20:00,40.8,28.5,30.05,NW,315,4.0,6.7,61,0.00,,,0.00,WUHU216HW,2013-03-29 07:20:00,
2013-03-29 03:21:00,40.8,28.5,30.04,NW,315,6.9,6.9,61,0.00,,,0.00,WUHU216HW,2013-03-29 07:21:00,
2013-03-29 03:22:00,40.6,28.3,30.05,NNW,338,5.6,6.9,61,0.00,,,0.00,WUHU216HW,2013-03-29 07:22:00,
2013-03-29 03:23:00,40.6,28.3,30.04,NNW,338,9.4,9.4,61,0.00,,,0.00,WUHU216HW,2013-03-29 07:23:00,
2013-03-29 03:26:00,40.4,28.1,30.04,NNW,338,2.9,9.4,61,0.00,,,0.00,WUHU216HW,2013-03-29 07:26:00,
2013-03-29 03:27:00,40.4,28.1,30.05,NW,315,3.6,9.4,61,0.00,,,0.00,WUHU216HW,2013-03-29 07:27:00,
2013-03-29 03:28:00,40.4,28.1,30.05,NW,315,3.4,9.4,61,0.00,,,0.00,WUHU216HW,2013-03-29 07:28:00,
2013-03-29 03:31:00,40.2,28.3,30.05,NW,315,3.1,9.4,62,0.00,,,0.00,WUHU216HW,2013-03-29 07:31:00,
2013-03-29 03:32:00,40.2,28.3,30.04,NNW,338,4.5,9.4,62,0.00,,,0.00,WUHU216HW,2013-03-29 07:32:00,
2013-03-29 03:33:00,40.2,28.3,30.04,NNW,338,3.4,5.6,62,0.00,,,0.00,WUHU216HW,2013-03-29 07:33:00,
2013-03-29 03:37:00,40.0,28.1,30.04,NNW,338,2.2,5.6,62,0.00,,,0.00,WUHU216HW,2013-03-29 07:37:00,
2013-03-29 03:38:00,39.9,28.4,30.05,North,0,4.3,5.6,63,0.00,,,0.00,WUHU216HW,2013-03-29 07:38:00,
2013-03-29 03:42:00,39.7,28.2,30.04,NNW,338,3.6,5.6,63,0.00,,,0.00,WUHU216HW,2013-03-29 07:42:00,
2013-03-29 03:43:00,39.7,28.2,30.05,WNW,293,4.7,5.6,63,0.00,,,0.00,WUHU216HW,2013-03-29 07:43:00,
2013-03-29 03:47:00,39.5,28.0,30.04,North,0,1.8,5.4,63,0.00,,,0.00,WUHU216HW,2013-03-29 07:47:00,
2013-03-29 03:48:00,39.5,28.0,30.04,NW,315,3.8,5.4,63,0.00,,,0.00,WUHU216HW,2013-03-29 07:48:00,
2013-03-29 03:52:00,39.3,27.8,30.04,NNW,338,3.6,5.4,63,0.00,,,0.00,WUHU216HW,2013-03-29 07:52:00,
2013-03-29 03:53:00,39.3,27.8,30.05,NW,315,2.7,5.4,63,0.00,,,0.00,WUHU216HW,2013-03-29 07:53:00,
2013-03-29 03:58:00,39.1,27.6,30.04,NNW,338,4.3,4.3,63,0.00,,,0.00,WUHU216HW,2013-03-29 07:58:00,
2013-03-29 03:59:00,39.1,28.0,30.04,NNW,338,2.5,4.3,64,0.00,,,0.00,WUHU216HW,2013-03-29 07:59:00,
2013-03-29 04:03:00,39.1,28.4,30.04,North,0,4.0,4.3,65,0.00,,,0.00,WUHU216HW,2013-03-29 08:03:00,
2013-03-29 04:04:00,39.1,28.4,30.04,NNW,338,5.1,5.1,65,0.00,,,0.00,WUHU216HW,2013-03-29 08:04:00,
2013-03-29 04:08:00,39.0,28.3,30.04,West,270,3.4,5.1,65,0.00,,,0.00,WUHU216HW,2013-03-29 08:08:00,
2013-03-29 04:09:00,39.0,28.3,30.04,WNW,293,3.6,5.1,65,0.00,,,0.00,WUHU216HW,2013-03-29 08:09:00,
2013-03-29 04:13:00,38.8,27.7,30.05,NW,315,2.9,5.1,64,0.00,,,0.00,WUHU216HW,2013-03-29 08:13:00,
2013-03-29 04:14:00,38.8,27.7,30.05,NW,315,2.9,4.5,64,0.00,,,0.00,WUHU216HW,2013-03-29 08:14:00,
2013-03-29 04:18:00,38.6,27.5,30.05,North,0,1.3,5.4,64,0.00,,,0.00,WUHU216HW,2013-03-29 08:18:00,
2013-03-29 04:19:00,38.6,27.5,30.05,NW,315,2.5,5.4,64,0.00,,,0.00,WUHU216HW,2013-03-29 08:19:00,
2013-03-29 04:20:00,38.6,27.9,30.05,WNW,293,3.8,5.4,65,0.00,,,0.00,WUHU216HW,2013-03-29 08:20:00,
2013-03-29 04:23:00,38.4,27.7,30.05,NW,315,2.9,5.4,65,0.00,,,0.00,WUHU216HW,2013-03-29 08:23:00,
2013-03-29 04:24:00,38.4,27.7,30.05,WNW,293,4.3,5.4,65,0.00,,,0.00,WUHU216HW,2013-03-29 08:24:00,
2013-03-29 04:25:00,38.4,27.7,30.05,NW,315,3.8,5.4,65,0.00,,,0.00,WUHU216HW,2013-03-29 08:25:00,
2013-03-29 04:28:00,38.2,27.5,30.05,NNW,338,2.2,4.5,65,0.00,,,0.00,WUHU216HW,2013-03-29 08:28:00,
2013-03-29 04:29:00,38.2,27.5,30.05,NNW,338,2.7,4.5,65,0.00,,,0.00,WUHU216HW,2013-03-29 08:29:00,
2013-03-29 04:30:00,38.2,27.5,30.05,WNW,293,4.3,4.5,65,0.00,,,0.00,WUHU216HW,2013-03-29 08:30:00,
2013-03-29 04:33:00,38.2,27.9,30.04,NNW,338,2.0,4.7,66,0.00,,,0.00,WUHU216HW,2013-03-29 08:33:00,
2013-03-29 04:34:00,38.2,27.5,30.05,NNW,338,2.7,4.7,65,0.00,,,0.00,WUHU216HW,2013-03-29 08:34:00,
2013-03-29 04:35:00,38.2,27.5,30.05,NW,315,3.1,4.7,65,0.00,,,0.00,WUHU216HW,2013-03-29 08:35:00,
2013-03-29 04:39:00,38.2,27.5,30.05,NW,315,3.4,4.7,65,0.00,,,0.00,WUHU216HW,2013-03-29 08:39:00,
2013-03-29 04:40:00,38.1,27.4,30.04,NW,315,4.7,4.7,65,0.00,,,0.00,WUHU216HW,2013-03-29 08:40:00,
2013-03-29 04:44:00,38.1,28.2,30.04,NW,315,2.5,4.7,67,0.00,,,0.00,WUHU216HW,2013-03-29 08:44:00,
2013-03-29 04:45:00,38.1,28.2,30.04,NW,315,2.5,4.7,67,0.00,,,0.00,WUHU216HW,2013-03-29 08:45:00,
2013-03-29 04:49:00,38.2,27.9,30.04,North,0,4.0,5.4,66,0.00,,,0.00,WUHU216HW,2013-03-29 08:49:00,
2013-03-29 04:50:00,38.2,27.9,30.04,North,0,5.6,5.6,66,0.00,,,0.00,WUHU216HW,2013-03-29 08:50:00,
2013-03-29 04:54:00,38.2,27.9,30.05,WNW,293,5.4,5.6,66,0.00,,,0.00,WUHU216HW,2013-03-29 08:54:00,
2013-03-29 04:55:00,38.2,27.9,30.05,WNW,293,5.4,5.6,66,0.00,,,0.00,WUHU216HW,2013-03-29 08:55:00,
2013-03-29 04:57:00,38.1,27.8,30.04,NNW,338,3.8,5.6,66,0.00,,,0.00,WUHU216HW,2013-03-29 08:57:00,
2013-03-29 04:59:00,38.1,27.8,30.05,WNW,293,2.9,5.6,66,0.00,,,0.00,WUHU216HW,2013-03-29 08:59:00,
2013-03-29 05:00:00,38.1,27.8,30.04,NNW,338,3.4,5.6,66,0.00,,,0.00,WUHU216HW,2013-03-29 09:00:00,
2013-03-29 05:02:00,37.9,27.6,30.04,West,270,2.5,5.4,66,0.00,,,0.00,WUHU216HW,2013-03-29 09:02:00,
2013-03-29 05:05:00,37.9,28.0,30.04,North,0,4.7,4.7,67,0.00,,,0.00,WUHU216HW,2013-03-29 09:05:00,
2013-03-29 05:07:00,37.9,28.0,30.04,NW,315,3.4,4.7,67,0.00,,,0.00,WUHU216HW,2013-03-29 09:07:00,
2013-03-29 05:10:00,37.9,27.6,30.04,NNW,338,3.8,4.7,66,0.00,,,0.00,WUHU216HW,2013-03-29 09:10:00,
2013-03-29 05:13:00,37.9,28.0,30.04,NW,315,4.0,4.7,67,0.00,,,0.00,WUHU216HW,2013-03-29 09:13:00,
2013-03-29 05:15:00,37.7,27.8,30.04,NW,315,4.7,4.7,67,0.00,,,0.00,WUHU216HW,2013-03-29 09:15:00,
2013-03-29 05:18:00,37.7,27.8,30.04,NW,315,4.3,4.7,67,0.00,,,0.00,WUHU216HW,2013-03-29 09:18:00,
2013-03-29 05:20:00,37.7,27.8,30.04,North,0,3.4,4.7,67,0.00,,,0.00,WUHU216HW,2013-03-29 09:20:00,
2013-03-29 05:23:00,37.9,28.0,30.04,WNW,293,4.3,4.7,67,0.00,,,0.00,WUHU216HW,2013-03-29 09:23:00,
2013-03-29 05:25:00,37.9,28.0,30.04,North,0,4.7,4.7,67,0.00,,,0.00,WUHU216HW,2013-03-29 09:25:00,
2013-03-29 05:28:00,37.9,28.0,30.04,NNE,23,2.9,4.7,67,0.00,,,0.00,WUHU216HW,2013-03-29 09:28:00,
2013-03-29 05:30:00,37.9,28.0,30.04,NW,315,5.6,5.6,67,0.00,,,0.00,WUHU216HW,2013-03-29 09:30:00,
2013-03-29 05:31:00,37.9,28.0,30.04,NW,315,5.6,5.6,67,0.00,,,0.00,WUHU216HW,2013-03-29 09:31:00,
2013-03-29 05:33:00,37.9,28.0,30.04,NNW,338,1.1,5.6,67,0.00,,,0.00,WUHU216HW,2013-03-29 09:33:00,
2013-03-29 05:35:00,37.7,27.8,30.04,North,0,1.8,5.6,67,0.00,,,0.00,WUHU216HW,2013-03-29 09:35:00,
2013-03-29 05:36:00,37.7,27.8,30.04,North,0,1.8,5.6,67,0.00,,,0.00,WUHU216HW,2013-03-29 09:36:00,
2013-03-29 05:38:00,37.7,27.8,30.04,North,0,3.6,7.6,67,0.00,,,0.00,WUHU216HW,2013-03-29 09:38:00,
2013-03-29 05:40:00,37.9,28.0,30.04,NNW,338,4.0,7.6,67,0.00,,,0.00,WUHU216HW,2013-03-29 09:40:00,
2013-03-29 05:41:00,37.9,28.0,30.04,North,0,2.2,7.6,67,0.00,,,0.00,WUHU216HW,2013-03-29 09:41:00,
2013-03-29 05:43:00,37.9,28.0,30.04,NW,315,6.5,7.6,67,0.00,,,0.00,WUHU216HW,2013-03-29 09:43:00,
2013-03-29 05:45:00,37.9,28.0,30.04,WNW,293,3.1,7.6,67,0.00,,,0.00,WUHU216HW,2013-03-29 09:45:00,
2013-03-29 05:47:00,37.9,28.0,30.04,North,0,5.4,7.6,67,0.00,,,0.00,WUHU216HW,2013-03-29 09:47:00,
2013-03-29 05:48:00,37.9,28.0,30.04,WNW,293,5.8,6.5,67,0.00,,,0.00,WUHU216HW,2013-03-29 09:48:00,
2013-03-29 05:50:00,37.9,28.0,30.04,NNW,338,2.5,6.5,67,0.00,,,0.00,WUHU216HW,2013-03-29 09:50:00,
2013-03-29 05:52:00,37.9,28.0,30.04,NW,315,3.4,6.5,67,0.00,,,0.00,WUHU216HW,2013-03-29 09:52:00,
2013-03-29 05:54:00,37.9,28.0,30.04,NNW,338,7.4,7.4,67,0.00,,,0.00,WUHU216HW,2013-03-29 09:54:00,
2013-03-29 05:56:00,37.9,28.0,30.04,NNW,338,4.3,7.4,67,0.00,,,0.00,WUHU216HW,2013-03-29 09:56:00,
2013-03-29 05:57:00,37.7,27.8,30.04,NNW,338,4.9,7.4,67,0.00,,,0.00,WUHU216HW,2013-03-29 09:57:00,
2013-03-29 05:59:00,37.7,27.8,30.04,NW,315,6.0,7.6,67,0.00,,,0.00,WUHU216HW,2013-03-29 09:59:00,
2013-03-29 06:00:00,37.7,27.8,30.04,WNW,293,4.3,7.6,67,0.00,,,0.00,WUHU216HW,2013-03-29 10:00:00,
2013-03-29 06:02:00,37.9,28.0,30.04,WNW,293,4.0,7.6,67,0.00,,,0.00,WUHU216HW,2013-03-29 10:02:00,
2013-03-29 06:03:00,37.9,28.0,30.04,NNW,338,7.6,7.6,67,0.00,,,0.00,WUHU216HW,2013-03-29 10:03:00,
2013-03-29 06:04:00,37.9,28.0,30.04,NNW,338,2.7,7.6,67,0.00,,,0.00,WUHU216HW,2013-03-29 10:04:00,
2013-03-29 06:06:00,37.9,28.0,30.04,NNW,338,2.5,7.6,67,0.00,,,0.00,WUHU216HW,2013-03-29 10:06:00,
2013-03-29 06:07:00,37.9,28.0,30.04,NNW,338,3.8,7.6,67,0.00,,,0.00,WUHU216HW,2013-03-29 10:07:00,
2013-03-29 06:08:00,37.9,28.0,30.04,North,0,4.7,7.6,67,0.00,,,0.00,WUHU216HW,2013-03-29 10:08:00,
2013-03-29 06:09:00,37.9,28.0,30.04,NNW,338,4.7,7.6,67,0.00,,,0.00,WUHU216HW,2013-03-29 10:09:00,
2013-03-29 06:11:00,37.7,27.8,30.04,NNE,23,2.2,7.6,67,0.00,,,0.00,WUHU216HW,2013-03-29 10:11:00,
2013-03-29 06:12:00,37.7,27.8,30.04,NW,315,5.4,7.6,67,0.00,,,0.00,WUHU216HW,2013-03-29 10:12:00,
2013-03-29 06:13:00,37.7,27.8,30.04,NNW,338,4.9,5.4,67,0.00,,,0.00,WUHU216HW,2013-03-29 10:13:00,
2013-03-29 06:14:00,37.7,27.8,30.04,North,0,2.9,5.4,67,0.00,,,0.00,WUHU216HW,2013-03-29 10:14:00,
2013-03-29 06:17:00,37.7,28.2,30.04,NNW,338,4.7,5.4,68,0.00,,,0.00,WUHU216HW,2013-03-29 10:17:00,
2013-03-29 06:18:00,37.7,27.8,30.04,North,0,7.8,7.8,67,0.00,,,0.00,WUHU216HW,2013-03-29 10:18:00,
2013-03-29 06:19:00,37.7,28.2,30.04,NNW,338,3.1,7.8,68,0.00,,,0.00,WUHU216HW,2013-03-29 10:19:00,
2013-03-29 06:22:00,37.7,28.2,30.04,NNW,338,2.5,7.8,68,0.00,,,0.00,WUHU216HW,2013-03-29 10:22:00,
2013-03-29 06:23:00,37.7,28.2,30.04,NNW,338,2.5,7.8,68,0.00,,,0.00,WUHU216HW,2013-03-29 10:23:00,
2013-03-29 06:24:00,37.7,28.2,30.04,NW,315,4.0,7.8,68,0.00,,,0.00,WUHU216HW,2013-03-29 10:24:00,
2013-03-29 06:27:00,37.7,28.2,30.04,North,0,5.1,8.1,68,0.00,,,0.00,WUHU216HW,2013-03-29 10:27:00,
2013-03-29 06:28:00,37.7,28.2,30.04,North,0,5.1,8.1,68,0.00,,,0.00,WUHU216HW,2013-03-29 10:28:00,
2013-03-29 06:29:00,37.7,28.2,30.04,NNW,338,3.4,8.1,68,0.00,,,0.00,WUHU216HW,2013-03-29 10:29:00,
2013-03-29 06:32:00,37.9,28.4,30.04,North,0,4.7,8.1,68,0.00,,,0.00,WUHU216HW,2013-03-29 10:32:00,
2013-03-29 06:33:00,37.7,28.2,30.04,North,0,4.0,8.1,68,0.00,,,0.00,WUHU216HW,2013-03-29 10:33:00,
2013-03-29 06:34:00,37.7,28.2,30.04,North,0,4.3,8.1,68,0.00,,,0.00,WUHU216HW,2013-03-29 10:34:00,
2013-03-29 06:35:00,37.7,28.2,30.04,NW,315,3.8,8.1,68,0.00,,,0.00,WUHU216HW,2013-03-29 10:35:00,
2013-03-29 06:37:00,37.7,28.2,30.04,NNW,338,5.1,5.1,68,0.00,,,0.00,WUHU216HW,2013-03-29 10:37:00,
2013-03-29 06:38:00,37.7,28.2,30.04,NNW,338,3.1,5.1,68,0.00,,,0.00,WUHU216HW,2013-03-29 10:38:00,
2013-03-29 06:39:00,37.7,28.2,30.04,North,0,4.3,5.1,68,0.00,,,0.00,WUHU216HW,2013-03-29 10:39:00,
2013-03-29 06:40:00,37.7,28.2,30.04,North,0,4.3,5.1,68,0.00,,,0.00,WUHU216HW,2013-03-29 10:40:00,
2013-03-29 06:42:00,37.9,28.4,30.04,NNW,338,3.1,5.1,68,0.00,,,0.00,WUHU216HW,2013-03-29 10:42:00,
2013-03-29 06:43:00,37.9,28.4,30.04,NNW,338,6.9,6.9,68,0.00,,,0.00,WUHU216HW,2013-03-29 10:43:00,
2013-03-29 06:44:00,37.9,28.4,30.04,North,0,3.4,6.9,68,0.00,,,0.00,WUHU216HW,2013-03-29 10:44:00,
2013-03-29 06:45:00,37.9,28.4,30.04,WNW,293,4.0,6.9,68,0.00,,,0.00,WUHU216HW,2013-03-29 10:45:00,
2013-03-29 06:48:00,37.7,28.2,30.04,NNW,338,7.4,7.4,68,0.00,,,0.00,WUHU216HW,2013-03-29 10:48:00,
2013-03-29 06:49:00,37.7,28.2,30.04,North,0,4.0,7.4,68,0.00,,,0.00,WUHU216HW,2013-03-29 10:49:00,
2013-03-29 06:50:00,37.7,28.2,30.04,NW,315,6.9,7.4,68,0.00,,,0.00,WUHU216HW,2013-03-29 10:50:00,
2013-03-29 06:53:00,37.7,28.2,30.04,NNW,338,4.5,7.4,68,0.00,,,0.00,WUHU216HW,2013-03-29 10:53:00,
2013-03-29 06:54:00,37.5,28.0,30.04,North,0,4.5,7.4,68,0.00,,,0.00,WUHU216HW,2013-03-29 10:54:00,
2013-03-29 06:55:00,37.7,28.2,30.04,North,0,4.9,7.4,68,0.00,,,0.00,WUHU216HW,2013-03-29 10:55:00,
2013-03-29 06:58:00,37.7,28.2,30.04,North,0,3.1,6.9,68,0.00,,,0.00,WUHU216HW,2013-03-29 10:58:00,
2013-03-29 06:59:00,37.7,28.2,30.04,North,0,3.1,6.9,68,0.00,,,0.00,WUHU216HW,2013-03-29 10:59:00,
2013-03-29 07:00:00,37.7,28.2,30.05,North,0,3.6,5.4,68,0.00,,,0.00,WUHU216HW,2013-03-29 11:00:00,
2013-03-29 07:03:00,37.7,28.2,30.05,NW,315,3.1,5.4,68,0.00,,,0.00,WUHU216HW,2013-03-29 11:03:00,
2013-03-29 07:04:00,37.7,28.2,30.05,North,0,3.8,5.4,68,0.00,,,0.00,WUHU216HW,2013-03-29 11:04:00,
2013-03-29 07:06:00,37.7,28.2,30.05,NNW,338,3.4,5.4,68,0.00,,,0.00,WUHU216HW,2013-03-29 11:06:00,
2013-03-29 07:09:00,37.7,28.2,30.05,NNE,23,2.9,5.4,68,0.00,,,0.00,WUHU216HW,2013-03-29 11:09:00,
2013-03-29 07:11:00,37.5,28.0,30.05,NNW,338,5.4,5.4,68,0.00,,,0.00,WUHU216HW,2013-03-29 11:11:00,
2013-03-29 07:14:00,37.7,28.2,30.05,NNW,338,3.6,5.4,68,0.00,,,0.00,WUHU216HW,2013-03-29 11:14:00,
2013-03-29 07:15:00,37.7,28.2,30.05,NNW,338,2.5,5.4,68,0.00,,,0.00,WUHU216HW,2013-03-29 11:15:00,
2013-03-29 07:16:00,37.9,28.4,30.05,WNW,293,2.2,5.4,68,0.00,,,0.00,WUHU216HW,2013-03-29 11:16:00,
2013-03-29 07:19:00,37.7,28.2,30.05,North,0,2.5,5.4,68,0.00,,,0.00,WUHU216HW,2013-03-29 11:19:00,
2013-03-29 07:20:00,37.7,28.2,30.05,West,270,3.6,5.4,68,0.00,,,0.00,WUHU216HW,2013-03-29 11:20:00,
2013-03-29 07:22:00,37.7,28.2,30.05,NNW,338,1.3,3.8,68,0.00,,,0.00,WUHU216HW,2013-03-29 11:22:00,
2013-03-29 07:24:00,37.7,28.2,30.05,WNW,293,3.4,3.8,68,0.00,,,0.00,WUHU216HW,2013-03-29 11:24:00,
2013-03-29 07:25:00,37.7,28.2,30.05,NW,315,4.7,4.7,68,0.00,,,0.00,WUHU216HW,2013-03-29 11:25:00,
2013-03-29 07:27:00,37.7,28.5,30.05,WSW,248,3.6,4.7,69,0.00,,,0.00,WUHU216HW,2013-03-29 11:27:00,
2013-03-29 07:29:00,37.7,28.5,30.05,NNW,338,6.9,6.9,69,0.00,,,0.00,WUHU216HW,2013-03-29 11:29:00,
2013-03-29 07:30:00,37.9,28.7,30.05,NNW,338,6.0,6.9,69,0.00,,,0.00,WUHU216HW,2013-03-29 11:30:00,
2013-03-29 07:32:00,38.1,28.9,30.05,NNW,338,3.1,6.9,69,0.00,,,0.00,WUHU216HW,2013-03-29 11:32:00,
2013-03-29 07:34:00,38.1,28.5,30.05,WNW,293,7.6,8.9,68,0.00,,,0.00,WUHU216HW,2013-03-29 11:34:00,
2013-03-29 07:35:00,38.2,28.6,30.05,WNW,293,4.0,8.9,68,0.00,,,0.00,WUHU216HW,2013-03-29 11:35:00,
2013-03-29 07:36:00,38.2,28.6,30.05,WNW,293,4.0,8.9,68,0.00,,,0.00,WUHU216HW,2013-03-29 11:36:00,
2013-03-29 07:37:00,38.2,28.6,30.05,NNW,338,3.6,8.9,68,0.00,,,0.00,WUHU216HW,2013-03-29 11:37:00,
2013-03-29 07:40:00,38.2,28.6,30.06,WNW,293,4.0,8.9,68,0.00,,,0.00,WUHU216HW,2013-03-29 11:40:00,
2013-03-29 07:41:00,38.4,28.8,30.06,North,0,4.0,8.9,68,0.00,,,0.00,WUHU216HW,2013-03-29 11:41:00,
2013-03-29 07:42:00,38.6,29.0,30.06,WNW,293,5.1,8.9,68,0.00,,,0.00,WUHU216HW,2013-03-29 11:42:00,
2013-03-29 07:45:00,38.6,29.0,30.06,NNW,338,3.4,5.4,68,0.00,,,0.00,WUHU216HW,2013-03-29 11:45:00,
2013-03-29 07:47:00,38.6,29.0,30.06,WNW,293,5.4,5.4,68,0.00,,,0.00,WUHU216HW,2013-03-29 11:47:00,
2013-03-29 07:48:00,38.8,28.9,30.06,NNW,338,4.7,5.4,67,0.00,,,0.00,WUHU216HW,2013-03-29 11:48:00,
2013-03-29 07:50:00,38.8,28.9,30.06,NNW,338,4.7,5.4,67,0.00,,,0.00,WUHU216HW,2013-03-29 11:50:00,
2013-03-29 07:52:00,38.8,28.9,30.06,NW,315,6.7,6.7,67,0.00,,,0.00,WUHU216HW,2013-03-29 11:52:00,
2013-03-29 07:53:00,38.8,28.9,30.06,NW,315,6.7,6.7,67,0.00,,,0.00,WUHU216HW,2013-03-29 11:53:00,
2013-03-29 07:55:00,38.8,28.9,30.06,NW,315,3.1,6.7,67,0.00,,,0.00,WUHU216HW,2013-03-29 11:55:00,
2013-03-29 07:57:00,39.0,29.0,30.06,WNW,293,6.0,6.7,67,0.00,,,0.00,WUHU216HW,2013-03-29 11:57:00,
2013-03-29 07:58:00,39.0,29.0,30.06,WNW,293,6.0,6.7,67,0.00,,,0.00,WUHU216HW,2013-03-29 11:58:00,
2013-03-29 08:00:00,39.0,29.0,30.06,North,0,2.2,6.7,67,0.00,,,0.00,WUHU216HW,2013-03-29 12:00:00,
2013-03-29 08:02:00,39.1,29.1,30.06,West,270,2.2,6.3,67,0.00,,,0.00,WUHU216HW,2013-03-29 12:02:00,
2013-03-29 08:03:00,39.1,29.1,30.06,WNW,293,2.2,6.3,67,0.00,,,0.00,WUHU216HW,2013-03-29 12:03:00,
2013-03-29 08:05:00,39.1,29.1,30.06,NW,315,2.9,6.3,67,0.00,,,0.00,WUHU216HW,2013-03-29 12:05:00,
2013-03-29 08:07:00,39.3,29.3,30.06,North,0,4.0,4.0,67,0.00,,,0.00,WUHU216HW,2013-03-29 12:07:00,
2013-03-29 08:08:00,39.3,29.3,30.06,North,0,5.4,5.4,67,0.00,,,0.00,WUHU216HW,2013-03-29 12:08:00,
2013-03-29 08:10:00,39.5,29.5,30.06,NNE,23,2.2,5.4,67,0.00,,,0.00,WUHU216HW,2013-03-29 12:10:00,
2013-03-29 08:13:00,39.7,29.7,30.06,NNW,338,4.3,5.4,67,0.00,,,0.00,WUHU216HW,2013-03-29 12:13:00,
2013-03-29 08:15:00,40.0,29.6,30.06,North,0,3.6,5.4,66,0.00,,,0.00,WUHU216HW,2013-03-29 12:15:00,
2013-03-29 08:18:00,39.9,29.6,30.06,NW,315,3.6,5.4,66,0.00,,,0.00,WUHU216HW,2013-03-29 12:18:00,
2013-03-29 08:19:00,40.1,29.8,30.06,WNW,293,4.5,5.4,66,0.00,,,0.00,WUHU216HW,2013-03-29 12:19:00,
2013-03-29 08:20:00,40.3,30.0,30.06,NW,315,1.8,5.4,66,0.00,,,0.00,WUHU216HW,2013-03-29 12:20:00,
2013-03-29 08:23:00,40.7,30.3,30.06,North,0,2.2,5.4,66,0.00,,,0.00,WUHU216HW,2013-03-29 12:23:00,
2013-03-29 08:24:00,40.7,30.3,30.06,NNW,338,2.2,4.5,66,0.00,,,0.00,WUHU216HW,2013-03-29 12:24:00,
2013-03-29 08:25:00,40.8,30.4,30.06,North,0,1.6,4.5,66,0.00,,,0.00,WUHU216HW,2013-03-29 12:25:00,
2013-03-29 08:26:00,41.0,30.6,30.06,NW,315,2.7,4.5,66,0.00,,,0.00,WUHU216HW,2013-03-29 12:26:00,
2013-03-29 08:28:00,41.2,30.0,30.06,NW,315,3.8,4.5,64,0.00,,,0.00,WUHU216HW,2013-03-29 12:28:00,
2013-03-29 08:29:00,41.4,30.2,30.06,North,0,2.2,4.5,64,0.00,,,0.00,WUHU216HW,2013-03-29 12:29:00,
2013-03-29 08:31:00,41.4,30.2,30.06,North,0,1.8,4.5,64,0.00,,,0.00,WUHU216HW,2013-03-29 12:31:00,
2013-03-29 08:32:00,41.6,30.4,30.06,North,0,3.6,4.5,64,0.00,,,0.00,WUHU216HW,2013-03-29 12:32:00,
2013-03-29 08:33:00,41.6,30.0,30.06,NNW,338,2.5,4.5,63,0.00,,,0.00,WUHU216HW,2013-03-29 12:33:00,
2013-03-29 08:34:00,41.7,30.5,30.07,NNE,23,4.7,4.7,64,0.00,,,0.00,WUHU216HW,2013-03-29 12:34:00,
2013-03-29 08:36:00,41.9,30.3,30.06,NNW,338,4.9,6.3,63,0.00,,,0.00,WUHU216HW,2013-03-29 12:36:00,
2013-03-29 08:37:00,41.9,29.9,30.07,NNW,338,3.1,6.3,62,0.00,,,0.00,WUHU216HW,2013-03-29 12:37:00,
2013-03-29 08:38:00,41.9,29.9,30.06,North,0,4.7,6.3,62,0.00,,,0.00,WUHU216HW,2013-03-29 12:38:00,
2013-03-29 08:39:00,41.9,29.9,30.06,NW,315,4.5,6.3,62,0.00,,,0.00,WUHU216HW,2013-03-29 12:39:00,
2013-03-29 08:42:00,42.1,30.1,30.06,NNW,338,3.4,6.3,62,0.00,,,0.00,WUHU216HW,2013-03-29 12:42:00,
2013-03-29 08:43:00,42.1,30.0,30.06,North,0,2.0,6.3,62,0.00,,,0.00,WUHU216HW,2013-03-29 12:43:00,
2013-03-29 08:44:00,41.9,29.9,30.06,WNW,293,4.5,6.3,62,0.00,,,0.00,WUHU216HW,2013-03-29 12:44:00,
2013-03-29 08:47:00,42.0,29.6,30.06,NNW,338,2.5,4.7,61,0.00,,,0.00,WUHU216HW,2013-03-29 12:47:00,
2013-03-29 08:48:00,42.0,29.6,30.06,NNW,338,2.5,4.7,61,0.00,,,0.00,WUHU216HW,2013-03-29 12:48:00,
2013-03-29 08:49:00,42.0,29.6,30.06,North,0,6.0,6.0,61,0.00,,,0.00,WUHU216HW,2013-03-29 12:49:00,
2013-03-29 08:52:00,42.0,29.2,30.06,North,0,4.0,8.7,60,0.00,,,0.00,WUHU216HW,2013-03-29 12:52:00,
2013-03-29 08:53:00,42.0,29.2,30.06,North,0,4.0,8.7,60,0.00,,,0.00,WUHU216HW,2013-03-29 12:53:00,
2013-03-29 08:54:00,42.0,29.2,30.06,North,0,3.4,8.7,60,0.00,,,0.00,WUHU216HW,2013-03-29 12:54:00,
2013-03-29 08:58:00,42.2,29.8,30.06,NNE,23,1.6,8.7,61,0.00,,,0.00,WUHU216HW,2013-03-29 12:58:00,
2013-03-29 08:59:00,42.2,29.8,30.06,North,0,4.5,8.7,61,0.00,,,0.00,WUHU216HW,2013-03-29 12:59:00,
2013-03-29 09:03:00,42.5,29.6,30.06,North,0,2.5,5.8,60,0.00,,,0.00,WUHU216HW,2013-03-29 13:03:00,
2013-03-29 09:04:00,42.7,29.8,30.06,NNW,338,3.1,5.8,60,0.00,,,0.00,WUHU216HW,2013-03-29 13:04:00,
2013-03-29 09:05:00,42.7,29.8,30.06,NNW,338,3.6,5.8,60,0.00,,,0.00,WUHU216HW,2013-03-29 13:05:00,
2013-03-29 09:08:00,43.3,30.0,30.07,NNW,338,2.7,5.8,59,0.00,,,0.00,WUHU216HW,2013-03-29 13:08:00,
2013-03-29 09:09:00,43.3,30.0,30.06,North,0,4.0,5.8,59,0.00,,,0.00,WUHU216HW,2013-03-29 13:09:00,
2013-03-29 09:10:00,43.4,29.6,30.06,NNW,338,2.7,5.8,58,0.00,,,0.00,WUHU216HW,2013-03-29 13:10:00,
2013-03-29 09:13:00,43.5,29.8,30.06,NNW,338,2.7,7.6,58,0.00,,,0.00,WUHU216HW,2013-03-29 13:13:00,
2013-03-29 09:14:00,43.7,30.0,30.06,NW,315,3.4,7.6,58,0.00,,,0.00,WUHU216HW,2013-03-29 13:14:00,
2013-03-29 09:15:00,43.7,30.0,30.06,North,0,2.5,7.6,58,0.00,,,0.00,WUHU216HW,2013-03-29 13:15:00,
2013-03-29 09:18:00,43.9,30.2,30.06,NNE,23,2.5,7.6,58,0.00,,,0.00,WUHU216HW,2013-03-29 13:18:00,
2013-03-29 09:19:00,43.9,30.2,30.06,NNE,23,2.5,7.6,58,0.00,,,0.00,WUHU216HW,2013-03-29 13:19:00,
2013-03-29 09:20:00,43.9,29.7,30.06,NNW,338,3.1,7.6,57,0.00,,,0.00,WUHU216HW,2013-03-29 13:20:00,
2013-03-29 09:24:00,44.1,29.9,30.06,NNW,338,2.7,5.1,57,0.00,,,0.00,WUHU216HW,2013-03-29 13:24:00,
2013-03-29 09:25:00,44.1,29.9,30.06,North,0,1.1,5.1,57,0.00,,,0.00,WUHU216HW,2013-03-29 13:25:00,
2013-03-29 09:29:00,44.2,30.0,30.06,North,0,4.7,4.7,57,0.00,,,0.00,WUHU216HW,2013-03-29 13:29:00,
2013-03-29 09:30:00,44.2,30.0,30.06,NNE,23,2.2,4.7,57,0.00,,,0.00,WUHU216HW,2013-03-29 13:30:00,
2013-03-29 09:34:00,44.8,30.5,30.06,North,0,6.5,6.5,57,0.00,,,0.00,WUHU216HW,2013-03-29 13:34:00,
2013-03-29 09:35:00,44.8,30.5,30.06,NNW,338,3.1,6.5,57,0.00,,,0.00,WUHU216HW,2013-03-29 13:35:00,
2013-03-29 09:36:00,45.0,30.3,30.06,NNE,23,4.7,6.5,56,0.00,,,0.00,WUHU216HW,2013-03-29 13:36:00,
2013-03-29 09:39:00,44.8,30.1,30.06,North,0,5.1,6.5,56,0.00,,,0.00,WUHU216HW,2013-03-29 13:39:00,
2013-03-29 09:41:00,44.8,29.6,30.06,North,0,5.6,6.5,55,0.00,,,0.00,WUHU216HW,2013-03-29 13:41:00,
2013-03-29 09:42:00,44.7,29.6,30.06,North,0,5.8,6.5,55,0.00,,,0.00,WUHU216HW,2013-03-29 13:42:00,
2013-03-29 09:44:00,44.7,30.0,30.06,North,0,4.7,5.8,56,0.00,,,0.00,WUHU216HW,2013-03-29 13:44:00,
2013-03-29 09:45:00,44.7,30.0,30.06,North,0,4.7,5.8,56,0.00,,,0.00,WUHU216HW,2013-03-29 13:45:00,
2013-03-29 09:46:00,44.9,30.2,30.06,North,0,2.5,5.8,56,0.00,,,0.00,WUHU216HW,2013-03-29 13:46:00,
2013-03-29 09:48:00,44.9,29.8,30.06,North,0,3.4,5.8,55,0.00,,,0.00,WUHU216HW,2013-03-29 13:48:00,
2013-03-29 09:49:00,45.0,29.9,30.06,North,0,3.8,5.8,55,0.00,,,0.00,WUHU216HW,2013-03-29 13:49:00,
2013-03-29 09:50:00,45.0,29.9,30.06,North,0,3.8,5.8,55,0.00,,,0.00,WUHU216HW,2013-03-29 13:50:00,
2013-03-29 09:51:00,45.0,29.8,30.06,NNW,338,2.7,5.8,55,0.00,,,0.00,WUHU216HW,2013-03-29 13:51:00,
2013-03-29 09:53:00,45.4,30.2,30.06,North,0,4.0,4.9,55,0.00,,,0.00,WUHU216HW,2013-03-29 13:53:00,
2013-03-29 09:54:00,45.6,29.9,30.06,North,0,3.6,4.9,54,0.00,,,0.00,WUHU216HW,2013-03-29 13:54:00,
2013-03-29 09:55:00,45.6,29.9,30.06,North,0,5.4,5.4,54,0.00,,,0.00,WUHU216HW,2013-03-29 13:55:00,
2013-03-29 09:57:00,45.9,30.2,30.06,NNW,338,6.0,6.0,54,0.00,,,0.00,WUHU216HW,2013-03-29 13:57:00,
2013-03-29 09:58:00,45.9,29.7,30.06,NNW,338,5.4,6.0,53,0.00,,,0.00,WUHU216HW,2013-03-29 13:58:00,
2013-03-29 09:59:00,46.1,29.9,30.06,NNE,23,5.4,6.0,53,0.00,,,0.00,WUHU216HW,2013-03-29 13:59:00,
2013-03-29 10:00:00,46.1,29.9,30.06,North,0,4.0,6.0,53,0.00,,,0.00,WUHU216HW,2013-03-29 14:00:00,
2013-03-29 10:02:00,46.3,29.6,30.06,WNW,293,4.7,6.5,52,0.00,,,0.00,WUHU216HW,2013-03-29 14:02:00,
2013-03-29 10:03:00,46.3,29.6,30.06,WNW,293,6.7,6.7,52,0.00,,,0.00,WUHU216HW,2013-03-29 14:03:00,
2013-03-29 10:04:00,46.5,29.8,30.06,WNW,293,6.5,6.7,52,0.00,,,0.00,WUHU216HW,2013-03-29 14:04:00,
2013-03-29 10:05:00,46.7,30.0,30.06,WNW,293,4.9,6.7,52,0.00,,,0.00,WUHU216HW,2013-03-29 14:05:00,
2013-03-29 10:08:00,47.2,30.4,30.06,North,0,2.5,6.7,52,0.00,,,0.00,WUHU216HW,2013-03-29 14:08:00,
2013-03-29 10:09:00,47.2,30.4,30.06,NW,315,4.0,6.7,52,0.00,,,0.00,WUHU216HW,2013-03-29 14:09:00,
2013-03-29 10:10:00,47.4,30.6,30.06,NNE,23,3.1,6.7,52,0.00,,,0.00,WUHU216HW,2013-03-29 14:10:00,
2013-03-29 10:13:00,47.6,30.4,30.06,WNW,293,4.7,7.8,51,0.00,,,0.00,WUHU216HW,2013-03-29 14:13:00,
2013-03-29 10:14:00,47.6,29.9,30.06,NNW,338,3.1,7.8,50,0.00,,,0.00,WUHU216HW,2013-03-29 14:14:00,
2013-03-29 10:15:00,47.8,30.6,30.06,North,0,4.0,7.8,51,0.00,,,0.00,WUHU216HW,2013-03-29 14:15:00,
2013-03-29 10:18:00,47.8,30.1,30.06,North,0,7.6,7.8,50,0.00,,,0.00,WUHU216HW,2013-03-29 14:18:00,
2013-03-29 10:19:00,47.6,29.4,30.06,NNW,338,6.3,7.8,49,0.00,,,0.00,WUHU216HW,2013-03-29 14:19:00,
2013-03-29 10:20:00,47.5,28.7,30.06,North,0,2.0,7.8,48,0.00,,,0.00,WUHU216HW,2013-03-29 14:20:00,
2013-03-29 10:23:00,47.8,30.0,30.06,WNW,293,4.0,7.6,50,0.00,,,0.00,WUHU216HW,2013-03-29 14:23:00,
2013-03-29 10:24:00,48.0,29.7,30.06,WNW,293,3.1,7.6,49,0.00,,,0.00,WUHU216HW,2013-03-29 14:24:00,
2013-03-29 10:25:00,48.5,30.7,30.06,NW,315,6.5,7.6,50,0.00,,,0.00,WUHU216HW,2013-03-29 14:25:00,
2013-03-29 10:28:00,49.1,30.2,30.06,NNE,23,5.8,6.7,48,0.00,,,0.00,WUHU216HW,2013-03-29 14:28:00,
2013-03-29 10:30:00,48.5,29.1,30.06,NNW,338,4.7,6.7,47,0.00,,,0.00,WUHU216HW,2013-03-29 14:30:00,
2013-03-29 10:33:00,48.5,29.6,30.06,NNE,23,3.8,6.7,48,0.00,,,0.00,WUHU216HW,2013-03-29 14:33:00,
2013-03-29 10:35:00,48.5,29.6,30.06,NNE,23,4.5,6.7,48,0.00,,,0.00,WUHU216HW,2013-03-29 14:35:00,
2013-03-29 10:38:00,48.5,29.6,30.06,North,0,3.4,6.9,48,0.00,,,0.00,WUHU216HW,2013-03-29 14:38:00,
2013-03-29 10:39:00,48.5,29.6,30.06,North,0,3.4,6.9,48,0.00,,,0.00,WUHU216HW,2013-03-29 14:39:00,
2013-03-29 10:40:00,48.5,29.6,30.06,North,0,3.1,6.9,48,0.00,,,0.00,WUHU216HW,2013-03-29 14:40:00,
2013-03-29 10:41:00,48.5,29.6,30.06,North,0,3.1,6.9,48,0.00,,,0.00,WUHU216HW,2013-03-29 14:41:00,
2013-03-29 10:43:00,48.7,29.2,30.06,North,0,6.5,6.9,47,0.00,,,0.00,WUHU216HW,2013-03-29 14:43:00,
2013-03-29 10:44:00,48.7,29.2,30.06,NNW,338,6.9,6.9,47,0.00,,,0.00,WUHU216HW,2013-03-29 14:44:00,
2013-03-29 10:45:00,48.7,28.7,30.06,North,0,5.6,6.9,46,0.00,,,0.00,WUHU216HW,2013-03-29 14:45:00,
2013-03-29 10:46:00,48.7,28.7,30.06,North,0,5.6,6.9,46,0.00,,,0.00,WUHU216HW,2013-03-29 14:46:00,
2013-03-29 10:49:00,48.4,28.5,30.06,North,0,3.6,6.9,46,0.00,,,0.00,WUHU216HW,2013-03-29 14:49:00,
2013-03-29 10:51:00,48.6,29.2,30.06,NNW,338,2.0,6.9,47,0.00,,,0.00,WUHU216HW,2013-03-29 14:51:00,
2013-03-29 10:54:00,49.5,29.5,30.06,North,0,4.0,6.5,46,0.00,,,0.00,WUHU216HW,2013-03-29 14:54:00,
2013-03-29 10:56:00,49.5,29.5,30.06,North,0,4.0,6.5,46,0.00,,,0.00,WUHU216HW,2013-03-29 14:56:00,
2013-03-29 10:59:00,49.7,29.1,30.06,NW,315,2.9,6.9,45,0.00,,,0.00,WUHU216HW,2013-03-29 14:59:00,
2013-03-29 11:01:00,49.9,29.8,30.06,NW,315,5.4,6.9,46,0.00,,,0.00,WUHU216HW,2013-03-29 15:01:00,
2013-03-29 11:04:00,50.6,30.5,30.06,NNW,338,1.6,6.9,46,0.00,,,0.00,WUHU216HW,2013-03-29 15:04:00,
2013-03-29 11:06:00,51.0,30.3,30.06,WSW,248,1.8,5.6,45,0.00,,,0.00,WUHU216HW,2013-03-29 15:06:00,
2013-03-29 11:09:00,51.3,31.1,30.05,North,0,4.0,5.6,46,0.00,,,0.00,WUHU216HW,2013-03-29 15:09:00,
2013-03-29 11:10:00,51.3,30.5,30.05,NNW,338,4.7,5.6,45,0.00,,,0.00,WUHU216HW,2013-03-29 15:10:00,
2013-03-29 11:11:00,51.5,30.2,30.05,North,0,6.5,6.5,44,0.00,,,0.00,WUHU216HW,2013-03-29 15:11:00,
2013-03-29 11:12:00,51.3,29.4,30.06,North,0,5.8,6.5,43,0.00,,,0.00,WUHU216HW,2013-03-29 15:12:00,
2013-03-29 11:14:00,50.8,28.3,30.06,WNW,293,6.9,6.9,42,0.00,,,0.00,WUHU216HW,2013-03-29 15:14:00,
2013-03-29 11:15:00,50.6,28.8,30.06,WNW,293,7.8,7.8,43,0.00,,,0.00,WUHU216HW,2013-03-29 15:15:00,
2013-03-29 11:16:00,50.6,28.7,30.06,NNW,338,3.1,7.8,43,0.00,,,0.00,WUHU216HW,2013-03-29 15:16:00,
2013-03-29 11:17:00,50.6,28.7,30.06,NNW,338,3.1,7.8,43,0.00,,,0.00,WUHU216HW,2013-03-29 15:17:00,
2013-03-29 11:19:00,50.4,29.1,30.06,WNW,293,4.9,7.8,44,0.00,,,0.00,WUHU216HW,2013-03-29 15:19:00,
2013-03-29 11:20:00,50.6,28.7,30.06,West,270,3.4,7.8,43,0.00,,,0.00,WUHU216HW,2013-03-29 15:20:00,
2013-03-29 11:22:00,51.0,30.2,30.05,NW,315,4.0,7.8,45,0.00,,,0.00,WUHU216HW,2013-03-29 15:22:00,
2013-03-29 11:25:00,51.2,29.9,30.06,North,0,3.6,6.7,44,0.00,,,0.00,WUHU216HW,2013-03-29 15:25:00,
2013-03-29 11:27:00,51.4,30.1,30.05,NNE,23,3.4,6.7,44,0.00,,,0.00,WUHU216HW,2013-03-29 15:27:00,
2013-03-29 11:30:00,51.0,28.6,30.05,North,0,4.0,6.7,42,0.00,,,0.00,WUHU216HW,2013-03-29 15:30:00,
2013-03-29 11:32:00,50.9,29.1,30.05,NNW,338,6.7,6.7,43,0.00,,,0.00,WUHU216HW,2013-03-29 15:32:00,
2013-03-29 11:35:00,51.0,29.2,30.05,NW,315,4.0,6.7,43,0.00,,,0.00,WUHU216HW,2013-03-29 15:35:00,
2013-03-29 11:37:00,51.4,29.5,30.05,NNE,23,2.0,6.7,43,0.00,,,0.00,WUHU216HW,2013-03-29 15:37:00,
2013-03-29 11:40:00,51.9,30.5,30.05,SW,225,7.6,7.6,44,0.00,,,0.00,WUHU216HW,2013-03-29 15:40:00,
2013-03-29 11:42:00,52.7,30.7,30.05,West,270,5.4,7.6,43,0.00,,,0.00,WUHU216HW,2013-03-29 15:42:00,
2013-03-29 11:43:00,52.8,30.2,30.05,WNW,293,5.4,7.6,42,0.00,,,0.00,WUHU216HW,2013-03-29 15:43:00,
2013-03-29 11:45:00,53.2,31.1,30.05,WSW,248,6.7,7.6,43,0.00,,,0.00,WUHU216HW,2013-03-29 15:45:00,
2013-03-29 11:47:00,53.4,31.3,30.05,North,0,5.8,7.6,43,0.00,,,0.00,WUHU216HW,2013-03-29 15:47:00,
2013-03-29 11:48:00,53.4,30.1,30.05,NW,315,4.3,7.6,41,0.00,,,0.00,WUHU216HW,2013-03-29 15:48:00,
2013-03-29 11:50:00,53.0,29.7,30.05,West,270,4.3,6.7,41,0.00,,,0.00,WUHU216HW,2013-03-29 15:50:00,
2013-03-29 11:52:00,53.0,30.3,30.05,WSW,248,6.3,6.7,42,0.00,,,0.00,WUHU216HW,2013-03-29 15:52:00,
2013-03-29 11:53:00,52.8,29.6,30.05,North,0,4.7,6.7,41,0.00,,,0.00,WUHU216HW,2013-03-29 15:53:00,
2013-03-29 11:56:00,52.1,28.9,30.05,NNW,338,7.4,7.4,41,0.00,,,0.00,WUHU216HW,2013-03-29 15:56:00,
2013-03-29 11:57:00,51.9,28.7,30.05,North,0,3.1,7.4,41,0.00,,,0.00,WUHU216HW,2013-03-29 15:57:00,
2013-03-29 11:58:00,51.4,27.7,30.05,North,0,4.5,7.4,40,0.00,,,0.00,WUHU216HW,2013-03-29 15:58:00,
2013-03-29 11:59:00,51.2,28.1,30.05,NNW,338,3.1,7.4,41,0.00,,,0.00,WUHU216HW,2013-03-29 15:59:00,
2013-03-29 12:01:00,51.2,29.3,30.05,North,0,2.7,7.4,43,0.00,,,0.00,WUHU216HW,2013-03-29 16:01:00,
2013-03-29 12:02:00,51.2,29.3,30.04,North,0,2.5,7.4,43,0.00,,,0.00,WUHU216HW,2013-03-29 16:02:00,
2013-03-29 12:03:00,51.4,29.5,30.04,West,270,0.9,7.4,43,0.00,,,0.00,WUHU216HW,2013-03-29 16:03:00,
2013-03-29 12:04:00,51.8,29.8,30.05,WNW,293,6.5,7.4,43,0.00,,,0.00,WUHU216HW,2013-03-29 16:04:00,
2013-03-29 12:06:00,52.3,29.7,30.04,West,270,9.2,9.2,42,0.00,,,0.00,WUHU216HW,2013-03-29 16:06:00,
2013-03-29 12:07:00,52.7,29.4,30.05,SW,225,6.3,9.2,41,0.00,,,0.00,WUHU216HW,2013-03-29 16:07:00,
2013-03-29 12:08:00,52.6,29.4,30.05,SW,225,3.8,9.2,41,0.00,,,0.00,WUHU216HW,2013-03-29 16:08:00,
2013-03-29 12:09:00,52.9,28.5,30.05,South,180,6.3,9.2,39,0.00,,,0.00,WUHU216HW,2013-03-29 16:09:00,
2013-03-29 12:12:00,52.9,29.1,30.04,WNW,293,5.6,9.2,40,0.00,,,0.00,WUHU216HW,2013-03-29 16:12:00,
2013-03-29 12:13:00,53.3,29.4,30.05,WSW,248,8.5,9.2,40,0.00,,,0.00,WUHU216HW,2013-03-29 16:13:00,
2013-03-29 12:14:00,53.3,30.1,30.04,WSW,248,5.4,9.2,41,0.00,,,0.00,WUHU216HW,2013-03-29 16:14:00,
2013-03-29 12:17:00,53.3,29.4,30.04,NNE,23,2.5,8.5,40,0.00,,,0.00,WUHU216HW,2013-03-29 16:17:00,
2013-03-29 12:18:00,52.9,29.1,30.04,NNE,23,4.9,8.5,40,0.00,,,0.00,WUHU216HW,2013-03-29 16:18:00,
2013-03-29 12:19:00,52.6,28.2,30.04,North,0,3.4,8.5,39,0.00,,,0.00,WUHU216HW,2013-03-29 16:19:00,
2013-03-29 12:23:00,52.0,28.3,30.04,NNW,338,6.9,8.5,40,0.00,,,0.00,WUHU216HW,2013-03-29 16:23:00,
2013-03-29 12:24:00,51.8,27.4,30.04,WNW,293,2.5,6.9,39,0.00,,,0.00,WUHU216HW,2013-03-29 16:24:00,
2013-03-29 12:28:00,51.7,28.0,30.04,North,0,2.7,6.9,40,0.00,,,0.00,WUHU216HW,2013-03-29 16:28:00,
2013-03-29 12:29:00,51.7,28.0,30.04,North,0,2.7,6.9,40,0.00,,,0.00,WUHU216HW,2013-03-29 16:29:00,
2013-03-29 12:33:00,52.0,28.9,30.04,NW,315,5.8,8.5,41,0.00,,,0.00,WUHU216HW,2013-03-29 16:33:00,
2013-03-29 12:34:00,52.0,28.9,30.04,NW,315,5.8,8.5,41,0.00,,,0.00,WUHU216HW,2013-03-29 16:34:00,
2013-03-29 12:38:00,52.0,27.6,30.04,NW,315,7.4,9.2,39,0.00,,,0.00,WUHU216HW,2013-03-29 16:38:00,
2013-03-29 12:39:00,51.8,27.4,30.04,NW,315,6.5,9.2,39,0.00,,,0.00,WUHU216HW,2013-03-29 16:39:00,
2013-03-29 12:40:00,51.8,27.4,30.04,NW,315,6.5,9.2,39,0.00,,,0.00,WUHU216HW,2013-03-29 16:40:00,
2013-03-29 12:43:00,51.3,27.6,30.04,North,0,2.7,9.2,40,0.00,,,0.00,WUHU216HW,2013-03-29 16:43:00,
2013-03-29 12:44:00,51.3,27.6,30.04,North,0,5.1,9.2,40,0.00,,,0.00,WUHU216HW,2013-03-29 16:44:00,
2013-03-29 12:45:00,51.3,27.6,30.04,North,0,5.1,9.2,40,0.00,,,0.00,WUHU216HW,2013-03-29 16:45:00,
2013-03-29 12:48:00,51.1,28.0,30.04,North,0,3.4,6.5,41,0.00,,,0.00,WUHU216HW,2013-03-29 16:48:00,
2013-03-29 12:49:00,51.1,28.0,30.04,NW,315,2.2,6.0,41,0.00,,,0.00,WUHU216HW,2013-03-29 16:49:00,
2013-03-29 12:50:00,51.1,28.0,30.04,NW,315,2.2,6.0,41,0.00,,,0.00,WUHU216HW,2013-03-29 16:50:00,
2013-03-29 12:53:00,51.8,28.0,30.03,North,0,4.7,6.5,40,0.00,,,0.00,WUHU216HW,2013-03-29 16:53:00,
2013-03-29 12:54:00,51.5,27.1,30.03,NW,315,2.7,6.5,39,0.00,,,0.00,WUHU216HW,2013-03-29 16:54:00,
2013-03-29 12:55:00,51.5,27.1,30.03,NW,315,2.7,6.5,39,0.00,,,0.00,WUHU216HW,2013-03-29 16:55:00,
2013-03-29 12:58:00,51.1,27.4,30.03,WNW,293,6.9,6.9,40,0.00,,,0.00,WUHU216HW,2013-03-29 16:58:00,
2013-03-29 12:59:00,51.1,27.4,30.03,NW,315,6.3,6.9,40,0.00,,,0.00,WUHU216HW,2013-03-29 16:59:00,
2013-03-29 13:00:00,51.1,27.4,30.03,NNW,338,4.0,6.9,40,0.00,,,0.00,WUHU216HW,2013-03-29 17:00:00,
2013-03-29 13:04:00,50.9,27.2,30.03,WNW,293,6.0,6.9,40,0.00,,,0.00,WUHU216HW,2013-03-29 17:04:00,
2013-03-29 13:05:00,50.8,27.1,30.03,NNW,338,3.8,6.9,40,0.00,,,0.00,WUHU216HW,2013-03-29 17:05:00,
2013-03-29 13:09:00,50.4,26.7,30.03,WNW,293,2.5,6.9,40,0.00,,,0.00,WUHU216HW,2013-03-29 17:09:00,
2013-03-29 13:10:00,50.4,26.7,30.03,WNW,293,2.5,6.9,40,0.00,,,0.00,WUHU216HW,2013-03-29 17:10:00,
2013-03-29 13:14:00,51.0,28.0,30.02,WNW,293,5.8,8.7,41,0.00,,,0.00,WUHU216HW,2013-03-29 17:14:00,
2013-03-29 13:15:00,51.0,27.4,30.02,WSW,248,4.3,8.7,40,0.00,,,0.00,WUHU216HW,2013-03-29 17:15:00,
2013-03-29 13:16:00,51.0,27.4,30.02,North,0,4.3,8.7,40,0.00,,,0.00,WUHU216HW,2013-03-29 17:16:00,
2013-03-29 13:19:00,51.0,27.4,30.02,North,0,2.2,8.7,40,0.00,,,0.00,WUHU216HW,2013-03-29 17:19:00,
2013-03-29 13:20:00,51.0,27.4,30.02,NW,315,1.8,7.2,40,0.00,,,0.00,WUHU216HW,2013-03-29 17:20:00,
2013-03-29 13:21:00,51.0,27.4,30.02,WSW,248,3.1,7.2,40,0.00,,,0.00,WUHU216HW,2013-03-29 17:21:00,
2013-03-29 13:24:00,51.4,27.1,30.02,WNW,293,7.8,7.8,39,0.00,,,0.00,WUHU216HW,2013-03-29 17:24:00,
2013-03-29 13:25:00,51.4,27.1,30.02,WNW,293,6.0,7.8,39,0.00,,,0.00,WUHU216HW,2013-03-29 17:25:00,
2013-03-29 13:27:00,51.4,27.1,30.02,NNW,338,4.7,7.8,39,0.00,,,0.00,WUHU216HW,2013-03-29 17:27:00,
2013-03-29 13:29:00,51.4,27.1,30.02,West,270,4.9,7.8,39,0.00,,,0.00,WUHU216HW,2013-03-29 17:29:00,
2013-03-29 13:30:00,51.6,27.3,30.02,SSW,203,4.7,7.8,39,0.00,,,0.00,WUHU216HW,2013-03-29 17:30:00,
2013-03-29 13:32:00,51.7,27.4,30.02,WNW,293,8.1,8.1,39,0.00,,,0.00,WUHU216HW,2013-03-29 17:32:00,
2013-03-29 13:34:00,51.7,27.4,30.02,NNW,338,5.8,8.1,39,0.00,,,0.00,WUHU216HW,2013-03-29 17:34:00,
2013-03-29 13:35:00,51.7,27.4,30.02,North,0,1.6,8.1,39,0.00,,,0.00,WUHU216HW,2013-03-29 17:35:00,
2013-03-29 13:37:00,51.7,27.4,30.02,WSW,248,2.2,8.1,39,0.00,,,0.00,WUHU216HW,2013-03-29 17:37:00,
2013-03-29 13:39:00,51.9,27.5,30.02,West,270,3.4,8.1,39,0.00,,,0.00,WUHU216HW,2013-03-29 17:39:00,
2013-03-29 13:40:00,51.9,27.5,30.02,West,270,1.8,8.1,39,0.00,,,0.00,WUHU216HW,2013-03-29 17:40:00,
2013-03-29 13:41:00,51.9,27.5,30.02,West,270,1.8,8.1,39,0.00,,,0.00,WUHU216HW,2013-03-29 17:41:00,
2013-03-29 13:43:00,51.7,27.4,30.02,WNW,293,7.2,7.2,39,0.00,,,0.00,WUHU216HW,2013-03-29 17:43:00,
2013-03-29 13:44:00,51.9,27.5,30.02,WSW,248,5.4,7.2,39,0.00,,,0.00,WUHU216HW,2013-03-29 17:44:00,
2013-03-29 13:45:00,51.9,27.5,30.01,WNW,293,4.7,7.2,39,0.00,,,0.00,WUHU216HW,2013-03-29 17:45:00,
2013-03-29 13:46:00,51.9,27.5,30.01,WNW,293,4.7,7.2,39,0.00,,,0.00,WUHU216HW,2013-03-29 17:46:00,
2013-03-29 13:48:00,52.1,27.7,30.01,WNW,293,5.6,8.7,39,0.00,,,0.00,WUHU216HW,2013-03-29 17:48:00,
2013-03-29 13:50:00,52.1,27.7,30.01,West,270,3.4,8.7,39,0.00,,,0.00,WUHU216HW,2013-03-29 17:50:00,
2013-03-29 13:52:00,52.3,27.9,30.01,West,270,5.4,8.7,39,0.00,,,0.00,WUHU216HW,2013-03-29 17:52:00,
2013-03-29 13:53:00,52.1,27.7,30.01,NW,315,8.3,8.7,39,0.00,,,0.00,WUHU216HW,2013-03-29 17:53:00,
2013-03-29 13:55:00,52.1,27.7,30.01,North,0,3.4,8.7,39,0.00,,,0.00,WUHU216HW,2013-03-29 17:55:00,
2013-03-29 13:57:00,51.9,27.5,30.01,NNW,338,2.5,8.7,39,0.00,,,0.00,WUHU216HW,2013-03-29 17:57:00,
2013-03-29 13:58:00,51.7,26.7,30.01,North,0,4.0,8.3,38,0.00,,,0.00,WUHU216HW,2013-03-29 17:58:00,
2013-03-29 14:00:00,51.7,26.7,30.01,North,0,4.0,8.3,38,0.00,,,0.00,WUHU216HW,2013-03-29 18:00:00,
2013-03-29 14:02:00,51.6,27.3,30.01,North,0,4.9,8.3,39,0.00,,,0.00,WUHU216HW,2013-03-29 18:02:00,
2013-03-29 14:04:00,51.4,27.1,30.01,WNW,293,4.0,6.9,39,0.00,,,0.00,WUHU216HW,2013-03-29 18:04:00,
2013-03-29 14:05:00,51.6,27.2,30.01,NNW,338,3.4,6.3,39,0.00,,,0.00,WUHU216HW,2013-03-29 18:05:00,
2013-03-29 14:06:00,51.6,27.2,30.01,North,0,4.3,6.3,39,0.00,,,0.00,WUHU216HW,2013-03-29 18:06:00,
2013-03-29 14:07:00,51.6,27.2,30.01,NW,315,5.1,6.3,39,0.00,,,0.00,WUHU216HW,2013-03-29 18:07:00,
2013-03-29 14:09:00,51.4,27.1,30.01,NNW,338,4.5,6.3,39,0.00,,,0.00,WUHU216HW,2013-03-29 18:09:00,
2013-03-29 14:11:00,51.4,27.1,30.00,North,0,4.3,6.3,39,0.00,,,0.00,WUHU216HW,2013-03-29 18:11:00,
2013-03-29 14:12:00,51.2,26.9,30.01,North,0,5.8,6.3,39,0.00,,,0.00,WUHU216HW,2013-03-29 18:12:00,
2013-03-29 14:14:00,51.2,26.9,30.01,NNW,338,4.0,5.8,39,0.00,,,0.00,WUHU216HW,2013-03-29 18:14:00,
2013-03-29 14:16:00,51.6,26.6,30.01,WNW,293,10.7,10.7,38,0.00,,,0.00,WUHU216HW,2013-03-29 18:16:00,
2013-03-29 14:17:00,51.6,26.6,30.01,North,0,5.4,10.7,38,0.00,,,0.00,WUHU216HW,2013-03-29 18:17:00,
2013-03-29 14:20:00,51.4,27.1,30.00,NW,315,3.4,10.7,39,0.00,,,0.00,WUHU216HW,2013-03-29 18:20:00,
2013-03-29 14:21:00,51.4,27.1,30.00,NW,315,3.4,10.7,39,0.00,,,0.00,WUHU216HW,2013-03-29 18:21:00,
2013-03-29 14:22:00,51.2,26.9,30.00,WNW,293,4.7,10.7,39,0.00,,,0.00,WUHU216HW,2013-03-29 18:22:00,
2013-03-29 14:25:00,51.4,27.1,30.00,WNW,293,4.9,10.7,39,0.00,,,0.00,WUHU216HW,2013-03-29 18:25:00,
2013-03-29 14:27:00,51.2,26.9,30.00,North,0,5.6,7.2,39,0.00,,,0.00,WUHU216HW,2013-03-29 18:27:00,
2013-03-29 14:28:00,51.2,26.9,30.00,North,0,5.6,7.2,39,0.00,,,0.00,WUHU216HW,2013-03-29 18:28:00,
2013-03-29 14:30:00,51.0,26.7,30.00,NW,315,4.5,5.6,39,0.00,,,0.00,WUHU216HW,2013-03-29 18:30:00,
2013-03-29 14:32:00,51.0,26.1,30.00,North,0,6.3,10.5,38,0.00,,,0.00,WUHU216HW,2013-03-29 18:32:00,
2013-03-29 14:33:00,51.0,26.1,30.00,North,0,6.3,10.5,38,0.00,,,0.00,WUHU216HW,2013-03-29 18:33:00,
2013-03-29 14:35:00,50.8,25.9,30.00,WNW,293,4.0,10.5,38,0.00,,,0.00,WUHU216HW,2013-03-29 18:35:00,
2013-03-29 14:37:00,50.8,25.9,30.00,NNW,338,3.6,10.5,38,0.00,,,0.00,WUHU216HW,2013-03-29 18:37:00,
2013-03-29 14:38:00,50.8,25.9,30.00,NNW,338,3.6,10.5,38,0.00,,,0.00,WUHU216HW,2013-03-29 18:38:00,
2013-03-29 14:41:00,51.0,26.7,30.00,North,0,5.4,10.5,39,0.00,,,0.00,WUHU216HW,2013-03-29 18:41:00,
2013-03-29 14:43:00,51.0,26.7,30.00,NNW,338,2.5,7.8,39,0.00,,,0.00,WUHU216HW,2013-03-29 18:43:00,
2013-03-29 14:46:00,51.2,26.9,30.00,NNW,338,4.9,7.8,39,0.00,,,0.00,WUHU216HW,2013-03-29 18:46:00,
2013-03-29 14:48:00,51.2,26.2,30.00,SW,225,4.0,7.8,38,0.00,,,0.00,WUHU216HW,2013-03-29 18:48:00,
2013-03-29 14:52:00,51.4,27.1,30.00,North,0,3.8,8.5,39,0.00,,,0.00,WUHU216HW,2013-03-29 18:52:00,
2013-03-29 14:53:00,51.6,27.2,30.00,NNW,338,3.1,8.5,39,0.00,,,0.00,WUHU216HW,2013-03-29 18:53:00,
2013-03-29 14:58:00,51.6,27.2,30.00,West,270,3.4,8.5,39,0.00,,,0.00,WUHU216HW,2013-03-29 18:58:00,
2013-03-29 15:03:00,51.4,26.4,29.99,North,0,6.9,8.5,38,0.00,,,0.00,WUHU216HW,2013-03-29 19:03:00,
2013-03-29 15:04:00,51.2,26.9,29.99,NNW,338,6.0,8.5,39,0.00,,,0.00,WUHU216HW,2013-03-29 19:04:00,
2013-03-29 15:08:00,50.3,26.1,30.00,North,0,6.3,7.4,39,0.00,,,0.00,WUHU216HW,2013-03-29 19:08:00,
2013-03-29 15:09:00,50.3,26.1,30.00,North,0,6.3,7.4,39,0.00,,,0.00,WUHU216HW,2013-03-29 19:09:00,
2013-03-29 15:13:00,50.5,26.3,30.00,WNW,293,6.3,6.3,39,0.00,,,0.00,WUHU216HW,2013-03-29 19:13:00,
2013-03-29 15:14:00,50.5,26.3,30.00,WNW,293,6.3,6.3,39,0.00,,,0.00,WUHU216HW,2013-03-29 19:14:00,
2013-03-29 15:18:00,51.0,26.7,29.99,North,0,2.0,6.3,39,0.00,,,0.00,WUHU216HW,2013-03-29 19:18:00,
2013-03-29 15:19:00,51.0,26.7,29.99,North,0,2.0,6.3,39,0.00,,,0.00,WUHU216HW,2013-03-29 19:19:00,
2013-03-29 15:24:00,51.2,26.9,29.99,NW,315,6.9,6.9,39,0.00,,,0.00,WUHU216HW,2013-03-29 19:24:00,
2013-03-29 15:29:00,51.6,26.6,29.99,NW,315,4.7,6.9,38,0.00,,,0.00,WUHU216HW,2013-03-29 19:29:00,
2013-03-29 15:34:00,51.0,26.1,29.99,NW,315,4.7,6.9,38,0.00,,,0.00,WUHU216HW,2013-03-29 19:34:00,
2013-03-29 15:39:00,50.3,25.5,29.99,North,0,2.5,8.3,38,0.00,,,0.00,WUHU216HW,2013-03-29 19:39:00,
2013-03-29 15:44:00,50.3,26.1,29.99,NNW,338,4.7,6.7,39,0.00,,,0.00,WUHU216HW,2013-03-29 19:44:00,
2013-03-29 15:45:00,50.3,26.1,29.99,NNW,338,4.7,6.7,39,0.00,,,0.00,WUHU216HW,2013-03-29 19:45:00,
2013-03-29 15:49:00,50.5,26.3,29.99,NNW,338,5.1,7.2,39,0.00,,,0.00,WUHU216HW,2013-03-29 19:49:00,
2013-03-29 15:50:00,50.5,26.3,29.99,NNW,338,5.1,7.2,39,0.00,,,0.00,WUHU216HW,2013-03-29 19:50:00,
2013-03-29 15:54:00,50.8,26.6,29.99,WNW,293,6.3,7.2,39,0.00,,,0.00,WUHU216HW,2013-03-29 19:54:00,
2013-03-29 15:55:00,50.8,26.6,29.99,WNW,293,6.3,7.2,39,0.00,,,0.00,WUHU216HW,2013-03-29 19:55:00,
2013-03-29 15:59:00,51.5,26.5,29.99,North,0,4.0,6.7,38,0.00,,,0.00,WUHU216HW,2013-03-29 19:59:00,
2013-03-29 16:00:00,51.5,26.5,29.99,North,0,3.4,6.7,38,0.00,,,0.00,WUHU216HW,2013-03-29 20:00:00,
2013-03-29 16:05:00,50.9,25.9,29.98,NNW,338,6.0,6.7,38,0.00,,,0.00,WUHU216HW,2013-03-29 20:05:00,
2013-03-29 16:06:00,50.8,25.9,29.98,WNW,293,4.9,6.7,38,0.00,,,0.00,WUHU216HW,2013-03-29 20:06:00,
2013-03-29 16:10:00,50.8,26.5,29.99,WNW,293,4.7,8.5,39,0.00,,,0.00,WUHU216HW,2013-03-29 20:10:00,
2013-03-29 16:11:00,50.8,26.5,29.98,WNW,293,4.7,8.5,39,0.00,,,0.00,WUHU216HW,2013-03-29 20:11:00,
2013-03-29 16:15:00,50.8,27.1,29.99,North,0,5.6,8.5,40,0.00,,,0.00,WUHU216HW,2013-03-29 20:15:00,
2013-03-29 16:16:00,50.8,27.1,29.99,North,0,5.6,8.5,40,0.00,,,0.00,WUHU216HW,2013-03-29 20:16:00,
2013-03-29 16:17:00,50.4,26.8,29.99,WNW,293,4.7,7.6,40,0.00,,,0.00,WUHU216HW,2013-03-29 20:17:00,
2013-03-29 16:20:00,50.4,26.8,29.99,North,0,4.7,8.9,40,0.00,,,0.00,WUHU216HW,2013-03-29 20:20:00,
2013-03-29 16:21:00,50.4,26.8,29.99,North,0,4.7,8.9,40,0.00,,,0.00,WUHU216HW,2013-03-29 20:21:00,
2013-03-29 16:22:00,50.2,26.6,29.98,NNW,338,6.7,8.9,40,0.00,,,0.00,WUHU216HW,2013-03-29 20:22:00,
2013-03-29 16:25:00,50.2,27.2,29.99,NNE,23,3.6,8.9,41,0.00,,,0.00,WUHU216HW,2013-03-29 20:25:00,
2013-03-29 16:26:00,50.2,27.2,29.98,WNW,293,5.1,8.9,41,0.00,,,0.00,WUHU216HW,2013-03-29 20:26:00,
2013-03-29 16:28:00,50.2,27.2,29.99,WNW,293,7.8,8.9,41,0.00,,,0.00,WUHU216HW,2013-03-29 20:28:00,
2013-03-29 16:30:00,50.2,27.2,29.99,SW,225,5.4,10.7,41,0.00,,,0.00,WUHU216HW,2013-03-29 20:30:00,
2013-03-29 16:32:00,50.0,27.6,29.99,NNW,338,6.0,10.7,42,0.00,,,0.00,WUHU216HW,2013-03-29 20:32:00,
2013-03-29 16:33:00,50.0,27.6,29.99,WNW,293,3.6,10.7,42,0.00,,,0.00,WUHU216HW,2013-03-29 20:33:00,
2013-03-29 16:35:00,49.7,27.4,29.99,North,0,3.4,10.7,42,0.00,,,0.00,WUHU216HW,2013-03-29 20:35:00,
2013-03-29 16:37:00,49.7,27.4,29.99,NNW,338,11.2,11.2,42,0.00,,,0.00,WUHU216HW,2013-03-29 20:37:00,
2013-03-29 16:38:00,49.5,27.8,29.99,North,0,6.3,11.2,43,0.00,,,0.00,WUHU216HW,2013-03-29 20:38:00,
2013-03-29 16:40:00,49.3,27.0,29.98,NNW,338,3.8,11.2,42,0.00,,,0.00,WUHU216HW,2013-03-29 20:40:00,
2013-03-29 16:42:00,49.1,26.8,29.99,NNW,338,7.4,11.2,42,0.00,,,0.00,WUHU216HW,2013-03-29 20:42:00,
2013-03-29 16:43:00,49.1,26.8,29.99,WNW,293,3.1,11.2,42,0.00,,,0.00,WUHU216HW,2013-03-29 20:43:00,
2013-03-29 16:45:00,49.1,27.4,29.99,NNE,23,4.0,11.2,43,0.00,,,0.00,WUHU216HW,2013-03-29 20:45:00,
2013-03-29 16:47:00,49.3,27.6,29.99,WNW,293,4.9,7.8,43,0.00,,,0.00,WUHU216HW,2013-03-29 20:47:00,
2013-03-29 16:48:00,49.3,27.6,29.98,NNW,338,3.8,7.8,43,0.00,,,0.00,WUHU216HW,2013-03-29 20:48:00,
2013-03-29 16:50:00,49.1,27.4,29.99,WNW,293,7.8,8.7,43,0.00,,,0.00,WUHU216HW,2013-03-29 20:50:00,
2013-03-29 16:52:00,49.1,27.4,29.99,WNW,293,4.5,8.7,43,0.00,,,0.00,WUHU216HW,2013-03-29 20:52:00,
2013-03-29 16:53:00,49.1,27.4,29.99,West,270,6.3,8.7,43,0.00,,,0.00,WUHU216HW,2013-03-29 20:53:00,
2013-03-29 16:55:00,49.1,27.5,29.98,NNW,338,3.4,8.7,43,0.00,,,0.00,WUHU216HW,2013-03-29 20:55:00,
2013-03-29 16:57:00,49.1,27.5,29.99,NNE,23,8.5,8.7,43,0.00,,,0.00,WUHU216HW,2013-03-29 20:57:00,
2013-03-29 16:58:00,49.1,27.5,29.99,NNE,23,8.5,8.7,43,0.00,,,0.00,WUHU216HW,2013-03-29 20:58:00,
2013-03-29 17:01:00,48.7,27.0,29.97,North,0,4.5,8.5,43,0.00,,,0.00,WUHU216HW,2013-03-29 21:01:00,
2013-03-29 17:02:00,48.5,26.8,29.98,NW,315,3.4,8.5,43,0.00,,,0.00,WUHU216HW,2013-03-29 21:02:00,
2013-03-29 17:03:00,48.7,27.6,29.98,NNW,338,4.5,8.5,44,0.00,,,0.00,WUHU216HW,2013-03-29 21:03:00,
2013-03-29 17:06:00,48.9,27.2,29.98,North,0,5.8,8.5,43,0.00,,,0.00,WUHU216HW,2013-03-29 21:06:00,
2013-03-29 17:08:00,48.7,27.0,29.98,NNE,23,3.8,5.8,43,0.00,,,0.00,WUHU216HW,2013-03-29 21:08:00,
2013-03-29 17:11:00,48.7,27.6,29.97,NNW,338,5.8,8.5,44,0.00,,,0.00,WUHU216HW,2013-03-29 21:11:00,
2013-03-29 17:13:00,48.5,26.9,29.97,North,0,3.1,8.5,43,0.00,,,0.00,WUHU216HW,2013-03-29 21:13:00,
2013-03-29 17:16:00,48.3,26.7,29.96,North,0,4.7,8.5,43,0.00,,,0.00,WUHU216HW,2013-03-29 21:16:00,
2013-03-29 17:18:00,48.3,27.3,29.95,WNW,293,6.7,8.5,44,0.00,,,0.00,WUHU216HW,2013-03-29 21:18:00,
2013-03-29 17:22:00,48.3,27.3,29.95,WNW,293,6.7,6.7,44,0.00,,,0.00,WUHU216HW,2013-03-29 21:22:00,
2013-03-29 17:23:00,48.3,27.3,29.95,WNW,293,6.7,6.7,44,0.00,,,0.00,WUHU216HW,2013-03-29 21:23:00,
2013-03-29 17:27:00,48.3,27.3,29.95,WNW,293,6.7,6.7,44,0.00,,,0.00,WUHU216HW,2013-03-29 21:27:00,